createdAt,value
2019-05-03T00:00:46.178Z,80.69
2019-05-03T00:03:12.470Z,80.76
2019-05-03T00:05:38.776Z,80.72
2019-05-03T00:08:05.169Z,80.43
2019-05-03T00:10:31.857Z,80.14
2019-05-03T00:12:57.798Z,80.21
2019-05-03T00:15:24.120Z,80.91
2019-05-03T00:17:50.422Z,81.41
2019-05-03T00:20:16.753Z,81.89
2019-05-03T00:22:43.055Z,81.20
2019-05-03T00:25:09.367Z,81.17
2019-05-03T00:27:35.690Z,80.92
2019-05-03T00:30:02.880Z,80.89
2019-05-03T00:32:28.360Z,80.86
2019-05-03T00:34:54.672Z,81.01
2019-05-03T00:37:22.097Z,81.53
2019-05-03T00:39:47.297Z,81.83
2019-05-03T00:42:13.646Z,82.23
2019-05-03T00:44:39.967Z,82.17
2019-05-03T00:47:06.272Z,82.22
2019-05-03T00:49:32.596Z,82.73
2019-05-03T00:51:58.895Z,83.28
2019-05-03T00:54:25.221Z,83.60
2019-05-03T00:56:52.254Z,83.91
2019-05-03T00:59:17.849Z,84.06
2019-05-03T01:01:44.158Z,84.07
2019-05-03T01:04:11.813Z,84.16
2019-05-03T01:06:36.851Z,84.48
2019-05-03T01:09:03.157Z,84.70
2019-05-03T01:11:29.479Z,85.13
2019-05-03T01:13:55.783Z,85.54
2019-05-03T01:16:22.678Z,85.35
2019-05-03T01:18:48.408Z,85.39
2019-05-03T01:21:14.738Z,85.62
2019-05-03T01:23:42.010Z,85.75
2019-05-03T01:26:07.358Z,85.28
2019-05-03T01:28:33.687Z,84.61
2019-05-03T01:30:59.992Z,84.85
2019-05-03T01:33:26.299Z,85.26
2019-05-03T01:35:52.631Z,85.02
2019-05-03T01:38:19.505Z,85.16
2019-05-03T01:40:45.263Z,85.55
2019-05-03T01:43:11.767Z,85.60
2019-05-03T01:45:37.884Z,85.24
2019-05-03T01:48:04.215Z,85.18
2019-05-03T01:50:32.013Z,85.76
2019-05-03T01:52:56.887Z,86.86
2019-05-03T01:55:23.193Z,87.05
2019-05-03T01:57:49.524Z,87.27
2019-05-03T02:00:15.829Z,87.24
2019-05-03T02:02:42.136Z,87.04
2019-05-03T02:05:08.455Z,87.36
2019-05-03T02:07:34.759Z,87.66
2019-05-03T02:10:02.799Z,88.09
2019-05-03T02:12:27.411Z,88.11
2019-05-03T02:14:53.714Z,87.85
2019-05-03T02:17:20.039Z,88.09
2019-05-03T02:19:46.345Z,88.39
2019-05-03T02:22:12.665Z,88.07
2019-05-03T02:24:38.994Z,88.46
2019-05-03T02:27:05.304Z,88.71
2019-05-03T02:29:32.555Z,88.88
2019-05-03T02:31:57.958Z,88.80
2019-05-03T02:34:24.290Z,89.00
2019-05-03T02:36:53.492Z,89.44
2019-05-03T02:39:16.920Z,89.71
2019-05-03T02:41:47.893Z,89.73
2019-05-03T02:44:09.559Z,89.88
2019-05-03T02:46:36.277Z,89.51
2019-05-03T02:49:02.183Z,89.62
2019-05-03T02:51:28.487Z,90.00
2019-05-03T02:53:57.059Z,90.49
2019-05-03T02:56:22.281Z,90.98
2019-05-03T02:58:47.436Z,90.67
2019-05-03T03:01:16.248Z,90.46
2019-05-03T03:03:40.070Z,89.96
2019-05-03T03:06:06.895Z,90.68
2019-05-03T03:08:33.406Z,91.57
2019-05-03T03:10:59.023Z,91.80
2019-05-03T03:13:25.603Z,92.18
2019-05-03T03:15:51.656Z,91.79
2019-05-03T03:18:17.956Z,91.43
2019-05-03T03:20:45.005Z,90.96
2019-05-03T03:23:14.267Z,90.98
2019-05-03T03:25:36.884Z,90.71
2019-05-03T03:28:05.307Z,90.71
2019-05-03T03:30:29.889Z,90.70
2019-05-03T03:32:57.709Z,90.46
2019-05-03T03:35:22.657Z,90.42
2019-05-03T03:37:48.543Z,90.07
2019-05-03T03:40:16.049Z,90.04
2019-05-03T03:42:41.164Z,90.22
2019-05-03T03:45:07.508Z,89.46
2019-05-03T03:47:35.846Z,89.41
2019-05-03T03:50:00.126Z,89.49
2019-05-03T03:52:26.435Z,89.40
2019-05-03T03:54:55.256Z,89.11
2019-05-03T03:57:19.060Z,89.47
2019-05-03T03:59:45.665Z,88.75
2019-05-03T04:02:11.686Z,88.32
2019-05-03T04:04:38.024Z,88.55
2019-05-03T04:07:06.631Z,88.77
2019-05-03T04:09:30.671Z,88.11
2019-05-03T04:11:57.090Z,87.62
2019-05-03T04:14:25.384Z,87.17
2019-05-03T04:16:49.626Z,86.81
2019-05-03T04:19:17.455Z,85.85
2019-05-03T04:21:42.262Z,84.95
2019-05-03T04:24:08.572Z,84.13
2019-05-03T04:26:35.786Z,83.55
2019-05-03T04:29:01.195Z,83.64
2019-05-03T04:31:27.522Z,83.10
2019-05-03T04:33:56.291Z,82.15
2019-05-03T04:36:20.158Z,80.71
2019-05-03T04:38:46.482Z,79.11
2019-05-03T04:41:15.669Z,78.19
2019-05-03T04:43:39.119Z,76.86
2019-05-03T04:46:06.562Z,75.82
2019-05-03T04:48:31.754Z,75.27
2019-05-03T04:50:58.056Z,74.34
2019-05-03T04:53:25.960Z,73.17
2019-05-03T04:55:50.704Z,72.62
2019-05-03T04:58:17.023Z,70.63
2019-05-03T05:00:46.287Z,66.33
2019-05-03T05:03:09.663Z,64.30
2019-05-03T05:05:36.461Z,61.27
2019-05-03T05:08:02.294Z,60.53
2019-05-03T05:10:28.620Z,61.66
2019-05-03T05:12:55.210Z,60.11
2019-05-03T05:15:21.248Z,58.50
2019-05-03T05:17:47.567Z,56.60
2019-05-03T05:20:14.483Z,53.88
2019-05-03T05:22:40.237Z,52.97
2019-05-03T05:25:06.543Z,51.39
2019-05-03T05:27:34.635Z,52.00
2019-05-03T05:29:59.182Z,53.82
2019-05-03T05:32:25.474Z,52.21
2019-05-03T05:34:51.828Z,52.21
2019-05-03T05:37:18.151Z,50.75
2019-05-03T05:39:44.788Z,51.13
2019-05-03T05:42:10.788Z,53.06
2019-05-03T05:44:37.100Z,53.50
2019-05-03T05:47:04.696Z,51.99
2019-05-03T05:49:29.720Z,50.46
2019-05-03T05:51:56.052Z,50.19
2019-05-03T05:54:22.352Z,50.26
2019-05-03T05:56:48.658Z,51.21
2019-05-03T05:59:15.008Z,50.43
2019-05-03T06:01:41.290Z,50.47
2019-05-03T06:04:09.934Z,50.98
2019-05-03T06:06:34.804Z,49.45
2019-05-03T06:09:00.245Z,49.13
2019-05-03T06:11:26.552Z,49.61
2019-05-03T06:13:54.516Z,48.53
2019-05-03T06:16:19.242Z,48.57
2019-05-03T06:18:45.544Z,49.29
2019-05-03T06:21:11.881Z,48.48
2019-05-03T06:23:38.184Z,48.42
2019-05-03T06:26:04.963Z,47.69
2019-05-03T06:28:30.819Z,46.67
2019-05-03T06:30:57.146Z,46.44
2019-05-03T06:33:24.492Z,46.63
2019-05-03T06:35:49.759Z,49.04
2019-05-03T06:38:16.081Z,48.35
2019-05-03T06:40:44.337Z,46.58
2019-05-03T06:43:12.646Z,46.18
2019-05-03T06:45:35.407Z,46.88
2019-05-03T06:48:01.349Z,47.62
2019-05-03T06:50:28.952Z,47.31
2019-05-03T06:52:54.820Z,46.31
2019-05-03T06:55:20.288Z,46.71
2019-05-03T06:57:49.569Z,46.08
2019-05-03T07:00:12.913Z,46.55
2019-05-03T07:02:39.279Z,47.12
2019-05-03T07:05:05.584Z,47.47
2019-05-03T07:07:31.906Z,48.70
2019-05-03T07:09:58.216Z,48.23
2019-05-03T07:12:25.004Z,47.21
2019-05-03T07:14:50.866Z,46.15
2019-05-03T07:17:17.175Z,44.48
2019-05-03T07:19:43.497Z,44.72
2019-05-03T07:22:09.803Z,44.11
2019-05-03T07:24:40.668Z,45.26
2019-05-03T07:27:02.471Z,44.46
2019-05-03T07:29:28.775Z,45.13
2019-05-03T07:31:55.098Z,44.79
2019-05-03T07:34:21.417Z,44.68
2019-05-03T07:36:47.721Z,43.96
2019-05-03T07:39:14.581Z,43.52
2019-05-03T07:41:40.357Z,43.58
2019-05-03T07:44:06.694Z,43.87
2019-05-03T07:46:34.741Z,42.82
2019-05-03T07:48:59.328Z,41.64
2019-05-03T07:51:25.633Z,41.39
2019-05-03T07:53:51.935Z,41.55
2019-05-03T07:56:18.273Z,41.29
2019-05-03T07:58:46.197Z,41.02
2019-05-03T08:01:10.922Z,41.65
2019-05-03T08:03:37.239Z,41.90
2019-05-03T08:06:04.769Z,42.00
2019-05-03T08:08:29.938Z,41.78
2019-05-03T08:10:56.242Z,41.76
2019-05-03T08:13:22.547Z,40.17
2019-05-03T08:15:49.008Z,39.81
2019-05-03T08:18:15.583Z,39.78
2019-05-03T08:20:41.679Z,39.18
2019-05-03T08:23:07.985Z,39.10
2019-05-03T08:25:35.463Z,37.98
2019-05-03T08:28:00.663Z,38.49
2019-05-03T08:30:27.107Z,39.62
2019-05-03T08:32:54.902Z,38.85
2019-05-03T08:35:19.867Z,38.64
2019-05-03T08:37:46.200Z,39.39
2019-05-03T08:40:12.497Z,39.17
2019-05-03T08:42:38.836Z,38.63
2019-05-03T08:45:07.906Z,37.69
2019-05-03T08:47:31.468Z,37.77
2019-05-03T08:49:57.775Z,37.79
2019-05-03T08:52:24.780Z,37.91
2019-05-03T08:54:50.495Z,37.49
2019-05-03T08:57:16.805Z,37.93
2019-05-03T08:59:45.773Z,39.00
2019-05-03T09:02:17.654Z,38.14
2019-05-03T09:04:42.682Z,37.66
2019-05-03T09:07:05.471Z,36.63
2019-05-03T09:09:31.680Z,36.27
2019-05-03T09:11:58.005Z,36.43
2019-05-03T09:14:24.566Z,34.54
2019-05-03T09:16:50.665Z,34.66
2019-05-03T09:19:16.978Z,34.98
2019-05-03T09:21:45.271Z,35.54
2019-05-03T09:24:09.642Z,34.05
2019-05-03T09:26:35.955Z,34.73
2019-05-03T09:29:02.273Z,34.16
2019-05-03T09:31:28.652Z,34.14
2019-05-03T09:33:55.108Z,34.21
2019-05-03T09:36:21.300Z,32.81
2019-05-03T09:38:47.608Z,32.07
2019-05-03T09:41:15.006Z,31.76
2019-05-03T09:43:40.240Z,31.77
2019-05-03T09:46:06.568Z,31.25
2019-05-03T09:48:34.672Z,30.51
2019-05-03T09:50:59.180Z,30.43
2019-05-03T09:53:25.695Z,30.62
2019-05-03T09:55:51.827Z,31.36
2019-05-03T09:58:18.199Z,31.30
2019-05-03T10:00:44.673Z,28.47
2019-05-03T10:03:10.788Z,27.42
2019-05-03T10:05:37.104Z,27.01
2019-05-03T10:08:05.105Z,26.83
2019-05-03T10:10:30.184Z,27.88
2019-05-03T10:12:56.500Z,26.90
2019-05-03T10:15:22.834Z,27.71
2019-05-03T10:17:49.150Z,27.73
2019-05-03T10:20:15.506Z,28.04
2019-05-03T10:22:41.793Z,28.32
2019-05-03T10:25:08.154Z,28.35
2019-05-03T10:27:34.757Z,28.42
2019-05-03T10:30:12.353Z,27.22
2019-05-03T10:32:27.269Z,27.48
2019-05-03T10:34:53.575Z,27.11
2019-05-03T10:37:19.909Z,28.20
2019-05-03T10:39:46.253Z,29.05
2019-05-03T10:42:12.560Z,28.71
2019-05-03T10:44:38.891Z,28.28
2019-05-03T10:47:05.594Z,27.23
2019-05-03T10:49:31.501Z,27.12
2019-05-03T10:51:57.827Z,27.26
2019-05-03T10:54:24.137Z,27.91
2019-05-03T10:56:50.464Z,25.75
2019-05-03T10:59:16.805Z,25.61
2019-05-03T11:01:45.128Z,25.63
2019-05-03T11:04:09.432Z,25.31
2019-05-03T11:06:35.765Z,25.69
2019-05-03T11:09:02.096Z,24.68
2019-05-03T11:11:28.414Z,25.20
2019-05-03T11:13:54.744Z,25.01
2019-05-03T11:16:21.057Z,25.27
2019-05-03T11:18:47.439Z,24.12
2019-05-03T11:21:14.440Z,23.71
2019-05-03T11:23:40.056Z,23.04
2019-05-03T11:26:06.361Z,23.77
2019-05-03T11:28:32.665Z,23.97
2019-05-03T11:31:02.271Z,25.40
2019-05-03T11:33:25.316Z,24.94
2019-05-03T11:35:51.649Z,25.43
2019-05-03T11:38:18.342Z,24.85
2019-05-03T11:40:45.484Z,25.17
2019-05-03T11:43:10.594Z,24.21
2019-05-03T11:45:36.919Z,24.75
2019-05-03T11:48:03.249Z,24.42
2019-05-03T11:50:29.597Z,24.31
2019-05-03T11:52:55.915Z,25.49
2019-05-03T11:55:22.272Z,25.03
2019-05-03T11:57:48.600Z,23.87
2019-05-03T12:00:14.922Z,23.47
2019-05-03T12:02:41.231Z,23.81
2019-05-03T12:05:07.558Z,22.83
2019-05-03T12:07:39.766Z,23.51
2019-05-03T12:10:00.282Z,24.33
2019-05-03T12:12:29.388Z,23.73
2019-05-03T12:14:54.796Z,22.76
2019-05-03T12:17:26.059Z,23.06
2019-05-03T12:19:47.374Z,22.81
2019-05-03T12:22:12.314Z,23.59
2019-05-03T12:24:38.819Z,23.32
2019-05-03T12:27:04.769Z,23.92
2019-05-03T12:29:30.812Z,24.64
2019-05-03T12:31:57.153Z,24.71
2019-05-03T12:34:25.621Z,24.03
2019-05-03T12:36:51.439Z,24.02
2019-05-03T12:39:26.302Z,24.20
2019-05-03T12:41:42.466Z,26.24
2019-05-03T12:44:08.774Z,26.45
2019-05-03T12:46:35.410Z,24.22
2019-05-03T12:49:01.458Z,23.32
2019-05-03T12:51:27.761Z,24.63
2019-05-03T12:53:55.171Z,24.63
2019-05-03T12:56:23.826Z,25.16
2019-05-03T12:58:46.777Z,25.82
2019-05-03T13:01:13.086Z,26.74
2019-05-03T13:03:39.415Z,26.33
2019-05-03T13:06:07.417Z,26.56
2019-05-03T13:08:32.044Z,26.96
2019-05-03T13:10:58.408Z,27.68
2019-05-03T13:13:25.009Z,27.43
2019-05-03T13:15:51.021Z,28.32
2019-05-03T13:18:17.351Z,28.71
2019-05-03T13:20:45.342Z,28.36
2019-05-03T13:23:12.822Z,28.56
2019-05-03T13:25:36.309Z,28.14
2019-05-03T13:28:02.623Z,27.08
2019-05-03T13:30:28.952Z,27.91
2019-05-03T13:32:55.261Z,27.74
2019-05-03T13:35:21.588Z,27.95
2019-05-03T13:37:47.897Z,27.08
2019-05-03T13:40:14.222Z,26.24
2019-05-03T13:42:53.048Z,26.42
2019-05-03T13:45:06.836Z,26.19
2019-05-03T13:47:34.924Z,26.65
2019-05-03T13:49:59.466Z,27.08
2019-05-03T13:52:25.801Z,26.88
2019-05-03T13:54:52.227Z,26.79
2019-05-03T13:57:18.517Z,26.77
2019-05-03T13:59:44.956Z,26.78
2019-05-03T14:02:15.543Z,26.95
2019-05-03T14:04:49.311Z,26.30
2019-05-03T14:07:04.657Z,27.35
2019-05-03T14:09:30.114Z,27.31
2019-05-03T14:11:56.421Z,27.02
2019-05-03T14:14:22.755Z,27.40
2019-05-03T14:16:49.066Z,27.53
2019-05-03T14:19:15.405Z,27.81
2019-05-03T14:21:41.710Z,27.33
2019-05-03T14:24:08.027Z,27.65
2019-05-03T14:26:35.115Z,27.87
2019-05-03T14:29:00.664Z,28.13
2019-05-03T14:31:26.990Z,27.67
2019-05-03T14:33:55.632Z,28.06
2019-05-03T14:36:19.619Z,27.75
2019-05-03T14:38:47.054Z,27.89
2019-05-03T14:41:14.690Z,28.02
2019-05-03T14:43:38.593Z,28.09
2019-05-03T14:46:05.619Z,28.45
2019-05-03T14:48:31.220Z,28.18
2019-05-03T14:50:57.599Z,28.74
2019-05-03T14:53:25.424Z,28.58
2019-05-03T14:55:50.182Z,28.19
2019-05-03T14:58:17.537Z,28.74
2019-05-03T15:00:45.048Z,28.86
2019-05-03T15:03:09.160Z,28.82
2019-05-03T15:05:35.498Z,28.82
2019-05-03T15:08:01.830Z,29.13
2019-05-03T15:10:28.138Z,29.15
2019-05-03T15:12:55.639Z,29.10
2019-05-03T15:15:20.765Z,29.20
2019-05-03T15:17:47.107Z,28.64
2019-05-03T15:20:14.762Z,28.30
2019-05-03T15:22:40.772Z,28.68
2019-05-03T15:25:09.230Z,28.36
2019-05-03T15:27:35.506Z,29.01
2019-05-03T15:30:04.847Z,28.77
2019-05-03T15:32:29.984Z,28.54
2019-05-03T15:34:56.316Z,30.14
2019-05-03T15:37:22.628Z,31.46
2019-05-03T15:39:48.956Z,32.57
2019-05-03T15:42:15.278Z,32.68
2019-05-03T15:44:41.588Z,33.34
2019-05-03T15:47:09.528Z,33.66
2019-05-03T15:49:35.670Z,33.78
2019-05-03T15:52:00.729Z,33.88
2019-05-03T15:54:26.983Z,33.90
2019-05-03T15:56:54.379Z,33.95
2019-05-03T15:59:19.623Z,34.26
2019-05-03T16:01:45.948Z,33.88
2019-05-03T16:04:14.229Z,34.18
2019-05-03T16:06:38.598Z,34.34
2019-05-03T16:09:04.915Z,34.32
2019-05-03T16:11:31.290Z,34.58
2019-05-03T16:13:58.447Z,34.61
2019-05-03T16:16:24.969Z,34.64
2019-05-03T16:18:51.034Z,35.21
2019-05-03T16:21:17.341Z,35.14
2019-05-03T16:23:46.357Z,35.41
2019-05-03T16:26:10.193Z,35.40
2019-05-03T16:28:36.530Z,35.27
2019-05-03T16:31:02.864Z,35.72
2019-05-03T16:33:29.257Z,36.23
2019-05-03T16:35:55.573Z,35.94
2019-05-03T16:38:21.915Z,36.10
2019-05-03T16:40:48.360Z,36.32
2019-05-03T16:43:16.224Z,36.24
2019-05-03T16:45:41.634Z,36.62
2019-05-03T16:48:07.934Z,36.34
2019-05-03T16:50:34.616Z,36.28
2019-05-03T16:53:00.568Z,36.82
2019-05-03T16:55:26.910Z,37.11
2019-05-03T16:57:54.819Z,37.32
2019-05-03T17:00:19.545Z,37.14
2019-05-03T17:02:45.888Z,37.20
2019-05-03T17:05:14.268Z,37.42
2019-05-03T17:07:38.535Z,37.83
2019-05-03T17:10:07.268Z,38.68
2019-05-03T17:12:31.190Z,38.19
2019-05-03T17:14:57.575Z,38.42
2019-05-03T17:17:25.196Z,38.63
2019-05-03T17:19:50.198Z,38.38
2019-05-03T17:22:17.444Z,38.15
2019-05-03T17:24:44.434Z,38.87
2019-05-03T17:27:09.184Z,38.88
2019-05-03T17:29:35.656Z,38.46
2019-05-03T17:32:01.984Z,38.72
2019-05-03T17:34:28.288Z,38.85
2019-05-03T17:36:54.663Z,38.84
2019-05-03T17:39:20.988Z,39.60
2019-05-03T17:41:47.299Z,39.96
2019-05-03T17:44:14.437Z,40.54
2019-05-03T17:46:39.951Z,41.06
2019-05-03T17:49:06.267Z,40.98
2019-05-03T17:51:32.590Z,40.30
2019-05-03T17:53:58.894Z,40.28
2019-05-03T17:56:25.236Z,40.56
2019-05-03T17:58:51.560Z,41.03
2019-05-03T18:01:17.882Z,42.15
2019-05-03T18:03:44.889Z,42.07
2019-05-03T18:06:10.526Z,42.26
2019-05-03T18:08:36.856Z,42.29
2019-05-03T18:11:04.539Z,42.55
2019-05-03T18:13:29.509Z,42.68
2019-05-03T18:15:55.820Z,43.16
2019-05-03T18:18:24.725Z,42.78
2019-05-03T18:20:48.464Z,43.19
2019-05-03T18:23:15.356Z,43.26
2019-05-03T18:25:41.188Z,43.14
2019-05-03T18:28:07.520Z,43.11
2019-05-03T18:30:34.894Z,43.70
2019-05-03T18:33:00.165Z,43.72
2019-05-03T18:35:26.475Z,43.96
2019-05-03T18:37:54.612Z,44.18
2019-05-03T18:40:19.125Z,44.55
2019-05-03T18:42:45.435Z,44.95
2019-05-03T18:45:11.766Z,45.18
2019-05-03T18:47:38.089Z,45.77
2019-05-03T18:50:04.428Z,45.42
2019-05-03T18:52:30.757Z,46.23
2019-05-03T18:54:58.195Z,45.72
2019-05-03T18:57:25.448Z,46.67
2019-05-03T18:59:50.026Z,46.31
2019-05-03T19:02:16.391Z,45.46
2019-05-03T19:04:45.035Z,45.31
2019-05-03T19:07:09.070Z,45.28
2019-05-03T19:09:35.405Z,45.66
2019-05-03T19:12:01.825Z,45.20
2019-05-03T19:14:28.092Z,44.76
2019-05-03T19:16:55.203Z,44.76
2019-05-03T19:19:21.528Z,44.48
2019-05-03T19:21:47.995Z,44.71
2019-05-03T19:24:15.194Z,44.80
2019-05-03T19:26:40.654Z,44.63
2019-05-03T19:29:07.031Z,44.29
2019-05-03T19:31:35.497Z,44.45
2019-05-03T19:33:59.669Z,44.74
2019-05-03T19:36:26.032Z,45.03
2019-05-03T19:38:54.515Z,44.69
2019-05-03T19:41:18.760Z,44.38
2019-05-03T19:43:45.097Z,44.34
2019-05-03T19:46:11.557Z,44.21
2019-05-03T19:48:38.107Z,44.23
2019-05-03T19:51:08.365Z,44.27
2019-05-03T19:53:35.958Z,44.48
2019-05-03T19:56:01.078Z,44.46
2019-05-03T19:58:27.401Z,44.39
2019-05-03T20:00:54.870Z,44.35
2019-05-03T20:03:20.045Z,44.47
2019-05-03T20:05:46.373Z,44.55
2019-05-03T20:08:12.682Z,44.43
2019-05-03T20:10:39.016Z,44.37
2019-05-03T20:13:05.316Z,44.37
2019-05-03T20:15:32.812Z,44.41
2019-05-03T20:18:00.252Z,43.40
2019-05-03T20:20:25.430Z,42.83
2019-05-03T20:22:51.795Z,41.63
2019-05-03T20:25:18.131Z,41.86
2019-05-03T20:27:44.657Z,42.34
2019-05-03T20:30:10.775Z,42.97
2019-05-03T20:32:37.105Z,44.31
2019-05-03T20:35:14.597Z,45.43
2019-05-03T20:37:29.757Z,46.49
2019-05-03T20:39:56.083Z,46.76
2019-05-03T20:42:24.278Z,47.17
2019-05-03T20:44:48.752Z,47.99
2019-05-03T20:47:15.052Z,47.84
2019-05-03T20:49:41.384Z,48.29
2019-05-03T20:52:07.688Z,48.36
2019-05-03T20:54:34.969Z,48.51
2019-05-03T20:57:00.335Z,48.54
2019-05-03T20:59:26.671Z,48.17
2019-05-03T21:01:54.601Z,48.83
2019-05-03T21:04:19.322Z,49.60
2019-05-03T21:06:45.729Z,49.97
2019-05-03T21:09:11.973Z,49.99
2019-05-03T21:11:38.284Z,50.33
2019-05-03T21:14:04.819Z,50.75
2019-05-03T21:16:30.934Z,51.48
2019-05-03T21:18:57.321Z,51.86
2019-05-03T21:21:25.170Z,51.86
2019-05-03T21:23:49.944Z,52.05
2019-05-03T21:26:16.755Z,51.90
2019-05-03T21:28:42.581Z,52.15
2019-05-03T21:31:08.910Z,52.34
2019-05-03T21:33:35.608Z,52.01
2019-05-03T21:36:01.545Z,52.16
2019-05-03T21:38:27.975Z,51.97
2019-05-03T21:40:54.660Z,52.00
2019-05-03T21:43:20.632Z,52.12
2019-05-03T21:45:46.941Z,52.78
2019-05-03T21:48:14.614Z,53.24
2019-05-03T21:50:39.572Z,53.23
2019-05-03T21:53:06.035Z,52.37
2019-05-03T21:55:32.223Z,53.01
2019-05-03T21:57:58.533Z,53.16
2019-05-03T22:00:24.878Z,53.68
2019-05-03T22:02:51.182Z,54.63
2019-05-03T22:05:17.509Z,55.37
2019-05-03T22:07:44.413Z,55.76
2019-05-03T22:10:10.140Z,55.90
2019-05-03T22:12:36.467Z,55.91
2019-05-03T22:15:02.775Z,55.97
2019-05-03T22:17:29.101Z,56.35
2019-05-03T22:19:55.404Z,56.55
2019-05-03T22:22:21.714Z,56.82
2019-05-03T22:24:48.054Z,57.38
2019-05-03T22:27:15.255Z,57.28
2019-05-03T22:29:40.839Z,57.54
2019-05-03T22:32:07.163Z,57.85
2019-05-03T22:34:34.896Z,58.26
2019-05-03T22:36:59.791Z,58.84
2019-05-03T22:39:26.101Z,59.33
2019-05-03T22:41:52.430Z,59.39
2019-05-03T22:44:18.732Z,59.45
2019-05-03T22:46:45.059Z,59.62
2019-05-03T22:49:11.370Z,59.26
2019-05-03T22:51:37.680Z,59.17
2019-05-03T22:54:04.730Z,59.01
2019-05-03T22:56:30.315Z,60.06
2019-05-03T22:58:56.647Z,59.77
2019-05-03T23:01:22.973Z,59.99
2019-05-03T23:03:49.271Z,60.09
2019-05-03T23:06:22.131Z,60.44
2019-05-03T23:08:41.907Z,60.99
2019-05-03T23:11:08.252Z,61.81
2019-05-03T23:13:34.577Z,61.81
2019-05-03T23:16:00.886Z,61.86
2019-05-03T23:18:27.205Z,63.08
2019-05-03T23:20:55.185Z,63.78
2019-05-03T23:23:19.841Z,63.68
2019-05-03T23:25:46.149Z,63.62
2019-05-03T23:28:14.416Z,63.73
2019-05-03T23:30:38.804Z,63.11
2019-05-03T23:33:05.109Z,63.72
2019-05-03T23:35:31.434Z,64.06
2019-05-03T23:37:57.743Z,64.21
2019-05-03T23:40:25.405Z,64.05
2019-05-03T23:42:50.386Z,63.74
2019-05-03T23:45:16.718Z,63.69
2019-05-03T23:47:44.881Z,63.80
2019-05-03T23:50:09.371Z,64.08
2019-05-03T23:52:35.719Z,64.40
2019-05-03T23:55:02.056Z,64.81
2019-05-03T23:57:28.339Z,64.80
2019-05-03T23:59:56.808Z,64.66
